Карточка аэропорта UOOO

Внимание!
Информация на этой странице в стадии наполнения.
Если вы не увидели какой-то информации, или заметили неточность - пожалуйста сообщите нам!
Спасибо!
Команда RU-STAFF
Название аэропортаАлыкель
Название аэропорта (англ.)Alykel
Превышение574 ft. (175 m.)
Координаты69°19.02', 87°19.02'
Высота перехода1200m
Эшелон переходаQFE>744:FL60;744>QFE>717:FL70;717>QFE:FL80
Коды ответчика5401-5427
Зона ОрВДКрасноярск РПИ (UNKL)
Данные METARUOOO 042000Z 25008MPS 2100 -SN BLSN OVC003 M08/M08 Q1016 R19/492032 NOSIG RMK QFE745/0994
Проноз погоды (TAF)UOOO 041946Z 0421/0521 26008G14MPS 1500 SN BLSN OVC006 TEMPO 0421/0503 0600 SN BLSN OVC003 TEMPO 0503/0508 2200 -SN BLSN FM051200 36005G10MPS 6000 -SN OVC011 TEMPO 0514/0518 31010G18MPS 1300 SN BLSN
NOTAMshow/hide NOTAM
AWOS   TABLE

Информация о ВПП

ВПП Длина ВПП (м.) Покрытие Курс ВПП Частота ILS
013430Бетон13109.5
193430Бетон193110.3

Диспетчерские позиции

Позывной Наименование органа УВД Частота
UOOO_APPНорильск - Круг120.400
UOOO_GNDНорильск - Руление121.700
UOOO_TWRНорильск - Старт118.300



Спутниковое изображение